createdAt,value
2023-02-24T00:01:52.854Z,18.27
2023-02-24T00:04:21.149Z,17.25
2023-02-24T00:06:49.156Z,19.67
2023-02-24T00:09:22.290Z,18.02
2023-02-24T00:11:58.285Z,17.67
2023-02-24T00:14:28.556Z,19.33
2023-02-24T00:16:58.616Z,19.17
2023-02-24T00:19:29.301Z,18.60
2023-02-24T00:21:56.627Z,17.52
2023-02-24T00:24:28.200Z,18.10
2023-02-24T00:26:59.742Z,17.80
2023-02-24T00:29:29.235Z,19.73
2023-02-24T00:32:00.951Z,18.80
2023-02-24T00:34:34.115Z,19.75
2023-02-24T00:37:03.292Z,20.23
2023-02-24T00:39:30.801Z,19.90
2023-02-24T00:42:05.165Z,19.95
2023-02-24T00:44:40.720Z,19.80
2023-02-24T00:47:10.639Z,20.30
2023-02-24T00:49:43.214Z,18.88
2023-02-24T00:52:13.909Z,19.95
2023-02-24T00:54:42.956Z,20.77
2023-02-24T00:57:11.109Z,21.67
2023-02-24T00:59:38.631Z,21.00
2023-02-24T01:02:07.998Z,19.83
2023-02-24T01:04:37.916Z,22.02
2023-02-24T01:07:11.156Z,22.48
2023-02-24T01:09:42.118Z,21.65
2023-02-24T01:12:38.575Z,20.67
2023-02-24T01:15:09.240Z,21.13
2023-02-24T01:17:37.928Z,20.30
2023-02-24T01:20:16.955Z,23.05
2023-02-24T01:22:46.519Z,21.85
2023-02-24T01:25:13.683Z,22.65
2023-02-24T01:27:41.190Z,21.23
2023-02-24T01:30:14.068Z,22.30
2023-02-24T01:32:41.478Z,21.88
2023-02-24T01:35:09.854Z,21.83
2023-02-24T01:37:36.868Z,24.60
2023-02-24T01:40:11.467Z,23.50
2023-02-24T01:42:42.032Z,21.50
2023-02-24T01:45:16.180Z,22.48
2023-02-24T01:47:47.440Z,22.23
2023-02-24T01:50:16.394Z,22.30
2023-02-24T01:52:47.100Z,23.10
2023-02-24T01:55:24.702Z,22.45
2023-02-24T01:57:53.651Z,22.77
2023-02-24T02:00:41.486Z,23.40
2023-02-24T02:03:15.808Z,21.95
2023-02-24T02:05:43.183Z,23.67
2023-02-24T02:08:11.625Z,24.33
2023-02-24T02:10:41.375Z,22.65
2023-02-24T02:13:08.400Z,22.20
2023-02-24T02:15:47.122Z,22.27
2023-02-24T02:18:38.621Z,22.38
2023-02-24T02:21:27.249Z,22.88
2023-02-24T02:24:20.315Z,22.27
2023-02-24T02:27:21.334Z,20.45
2023-02-24T02:30:17.514Z,22.85
2023-02-24T02:33:13.297Z,22.05
2023-02-24T02:36:07.274Z,21.40
2023-02-24T02:38:52.369Z,21.42
2023-02-24T02:41:22.224Z,19.85
2023-02-24T02:44:21.479Z,22.77
2023-02-24T02:46:56.665Z,22.73
2023-02-24T02:49:55.190Z,21.63
2023-02-24T02:52:41.208Z,23.05
2023-02-24T02:55:11.808Z,22.73
2023-02-24T02:57:47.343Z,21.27
2023-02-24T03:00:21.693Z,21.67
2023-02-24T03:02:55.581Z,21.85
2023-02-24T03:05:32.054Z,21.48
2023-02-24T03:08:04.989Z,22.83
2023-02-24T03:10:34.557Z,22.90
2023-02-24T03:13:06.269Z,22.77
2023-02-24T03:15:34.596Z,20.73
2023-02-24T03:18:11.302Z,21.00
2023-02-24T03:20:47.565Z,21.08
2023-02-24T03:23:32.071Z,21.17
2023-02-24T03:26:25.232Z,21.45
2023-02-24T03:29:11.565Z,21.33
2023-02-24T03:32:05.710Z,22.30
2023-02-24T03:34:49.840Z,21.35
2023-02-24T03:37:17.152Z,21.08
2023-02-24T03:39:47.108Z,21.25
2023-02-24T03:42:19.442Z,22.55
2023-02-24T03:44:46.801Z,21.63
2023-02-24T03:47:20.414Z,21.83
2023-02-24T03:49:48.278Z,21.55
2023-02-24T03:52:33.335Z,21.80
2023-02-24T03:55:24.631Z,19.75
2023-02-24T03:58:04.387Z,20.88
2023-02-24T04:00:55.702Z,22.20
2023-02-24T04:03:36.876Z,23.40
2023-02-24T04:06:44.712Z,20.67
2023-02-24T04:09:22.906Z,20.85
2023-02-24T04:12:09.535Z,22.20
2023-02-24T04:14:40.968Z,21.63
2023-02-24T04:17:19.495Z,19.52
2023-02-24T04:19:50.809Z,21.70
2023-02-24T04:22:24.731Z,21.88
2023-02-24T04:24:56.348Z,23.55
2023-02-24T04:27:24.254Z,21.98
2023-02-24T04:29:55.228Z,22.67
2023-02-24T04:32:27.568Z,21.35
2023-02-24T04:35:02.397Z,23.42
2023-02-24T04:37:33.978Z,22.73
2023-02-24T04:40:01.196Z,21.30
2023-02-24T04:42:28.760Z,22.90
2023-02-24T04:44:58.748Z,22.33
2023-02-24T04:47:29.171Z,23.35
2023-02-24T04:49:56.192Z,21.42
2023-02-24T04:52:23.236Z,23.25
2023-02-24T04:54:50.236Z,25.10
2023-02-24T04:57:17.198Z,22.23
2023-02-24T04:59:44.344Z,25.15
2023-02-24T05:02:11.452Z,23.05
2023-02-24T05:04:39.101Z,24.33
2023-02-24T05:07:06.289Z,23.67
2023-02-24T05:09:33.317Z,23.20
2023-02-24T05:12:00.525Z,23.20
2023-02-24T05:14:28.052Z,22.45
2023-02-24T05:17:00.609Z,22.75
2023-02-24T05:19:47.587Z,20.98
2023-02-24T05:22:17.657Z,22.98
2023-02-24T05:24:48.269Z,21.70
2023-02-24T05:27:17.718Z,21.98
2023-02-24T05:29:44.994Z,20.75
2023-02-24T05:32:13.372Z,22.50
2023-02-24T05:34:40.451Z,21.02
2023-02-24T05:37:10.826Z,21.60
2023-02-24T05:39:38.446Z,22.67
2023-02-24T05:42:07.101Z,23.08
2023-02-24T05:44:35.872Z,23.70
2023-02-24T05:47:05.822Z,25.42
2023-02-24T05:49:35.178Z,27.48
2023-02-24T05:52:08.288Z,32.45
2023-02-24T05:54:41.998Z,27.67
2023-02-24T05:57:17.698Z,23.92
2023-02-24T05:59:44.896Z,29.08
2023-02-24T06:02:17.313Z,33.85
2023-02-24T06:04:51.493Z,28.52
2023-02-24T06:07:23.102Z,26.55
2023-02-24T06:09:57.502Z,25.73
2023-02-24T06:12:34.006Z,26.08
2023-02-24T06:15:08.137Z,25.80
2023-02-24T06:17:35.665Z,26.20
2023-02-24T06:20:13.280Z,24.17
2023-02-24T06:22:42.617Z,24.63
2023-02-24T06:25:14.487Z,27.02
2023-02-24T06:27:43.252Z,27.50
2023-02-24T06:30:11.141Z,25.65
2023-02-24T06:32:38.529Z,26.20
2023-02-24T06:35:06.205Z,32.10
2023-02-24T06:37:33.293Z,24.35
2023-02-24T06:40:00.365Z,23.80
2023-02-24T06:42:27.759Z,24.83
2023-02-24T06:44:54.967Z,26.52
2023-02-24T06:47:23.184Z,26.58
2023-02-24T06:49:50.151Z,27.27
2023-02-24T06:52:19.278Z,26.73
2023-02-24T06:54:49.680Z,28.30
2023-02-24T06:57:16.771Z,28.45
2023-02-24T06:59:43.778Z,29.17
2023-02-24T07:02:11.080Z,28.30
2023-02-24T07:04:44.282Z,30.58
2023-02-24T07:07:14.730Z,29.15
2023-02-24T07:09:43.066Z,30.27
2023-02-24T07:12:11.449Z,29.30
2023-02-24T07:14:38.624Z,27.90
2023-02-24T07:17:06.164Z,27.55
2023-02-24T07:19:33.288Z,28.65
2023-02-24T07:22:03.583Z,29.15
2023-02-24T07:24:36.836Z,30.13
2023-02-24T07:27:22.672Z,28.48
2023-02-24T07:29:53.387Z,26.35
2023-02-24T07:32:22.668Z,29.98
2023-02-24T07:34:49.983Z,27.35
2023-02-24T07:37:17.081Z,28.52
2023-02-24T07:39:44.164Z,27.83
2023-02-24T07:42:15.466Z,25.60
2023-02-24T07:44:44.730Z,29.95
2023-02-24T07:47:41.217Z,28.05
2023-02-24T07:50:14.286Z,27.85
2023-02-24T07:52:41.804Z,25.75
2023-02-24T07:55:09.392Z,25.08
2023-02-24T07:57:41.995Z,22.67
2023-02-24T08:00:28.459Z,27.35
2023-02-24T08:02:57.270Z,26.73
2023-02-24T08:05:24.754Z,27.23
2023-02-24T08:07:52.306Z,24.88
2023-02-24T08:10:25.363Z,25.20
2023-02-24T08:12:54.719Z,25.08
2023-02-24T08:15:26.527Z,26.10
2023-02-24T08:18:01.291Z,26.23
2023-02-24T08:20:36.449Z,24.20
2023-02-24T08:23:06.610Z,24.73
2023-02-24T08:25:36.563Z,24.83
2023-02-24T08:28:09.612Z,24.13
2023-02-24T08:30:40.269Z,24.35
2023-02-24T08:33:10.726Z,25.17
2023-02-24T08:35:45.001Z,25.30
2023-02-24T08:38:19.246Z,23.65
2023-02-24T08:40:52.573Z,23.05
2023-02-24T08:43:29.423Z,24.25
2023-02-24T08:46:01.188Z,21.58
2023-02-24T08:48:39.204Z,20.20
2023-02-24T08:51:35.338Z,22.42
2023-02-24T08:54:11.296Z,20.98
2023-02-24T08:56:43.790Z,19.70
2023-02-24T08:59:50.485Z,22.05
2023-02-24T09:02:29.525Z,21.38
2023-02-24T09:05:14.354Z,22.27
2023-02-24T09:07:42.641Z,22.98
2023-02-24T09:10:18.227Z,20.58
2023-02-24T09:12:45.904Z,21.23
2023-02-24T09:15:17.187Z,20.65
2023-02-24T09:17:45.515Z,20.30
2023-02-24T09:20:33.582Z,19.67
2023-02-24T09:23:04.264Z,19.67
2023-02-24T09:25:44.074Z,18.08
2023-02-24T09:28:17.771Z,18.48
2023-02-24T09:30:57.479Z,23.65
2023-02-24T09:33:39.073Z,21.67
2023-02-24T09:36:30.362Z,19.90
2023-02-24T09:39:00.033Z,21.55
2023-02-24T09:41:57.108Z,19.77
2023-02-24T09:44:39.409Z,21.50
2023-02-24T09:47:31.591Z,20.00
2023-02-24T09:50:35.002Z,20.00
2023-02-24T09:53:17.684Z,19.25
2023-02-24T09:56:00.494Z,22.20
2023-02-24T09:58:53.409Z,20.08
2023-02-24T10:01:37.072Z,19.92
2023-02-24T10:04:49.474Z,19.52
2023-02-24T10:07:23.261Z,21.52
2023-02-24T10:10:18.630Z,19.05
2023-02-24T10:13:35.063Z,18.15
2023-02-24T10:16:11.282Z,20.33
2023-02-24T10:18:38.266Z,18.60
2023-02-24T10:21:06.852Z,19.00
2023-02-24T10:23:56.757Z,18.85
2023-02-24T10:26:35.082Z,17.10
2023-02-24T10:29:22.877Z,20.90
2023-02-24T10:31:58.347Z,18.30
2023-02-24T10:34:31.983Z,17.08
2023-02-24T10:37:19.336Z,14.88
2023-02-24T10:40:01.067Z,16.35
2023-02-24T10:42:34.765Z,15.10
2023-02-24T10:45:18.552Z,14.60
2023-02-24T10:47:58.279Z,14.35
2023-02-24T10:50:56.420Z,12.73
2023-02-24T10:53:41.174Z,12.85
2023-02-24T10:56:41.641Z,13.20
2023-02-24T10:59:31.053Z,13.50
2023-02-24T11:02:24.997Z,12.75
2023-02-24T11:05:02.367Z,13.63
2023-02-24T11:07:44.185Z,13.15
2023-02-24T11:10:43.004Z,13.55
2023-02-24T11:13:35.870Z,12.95
2023-02-24T11:16:21.659Z,12.95
2023-02-24T11:18:52.819Z,14.50
2023-02-24T11:21:23.287Z,13.95
2023-02-24T11:24:02.912Z,12.60
2023-02-24T11:26:38.343Z,12.77
2023-02-24T11:29:27.270Z,12.68
2023-02-24T11:32:18.015Z,15.55
2023-02-24T11:35:05.997Z,14.73
2023-02-24T11:37:46.988Z,15.27
2023-02-24T11:40:24.374Z,13.32
2023-02-24T11:43:11.634Z,13.02
2023-02-24T11:45:48.587Z,13.53
2023-02-24T11:48:37.191Z,13.50
2023-02-24T11:51:34.772Z,12.68
2023-02-24T11:54:06.137Z,9.75
2023-02-24T11:56:41.904Z,10.07
2023-02-24T11:59:16.157Z,8.17
2023-02-24T12:01:57.363Z,8.70
2023-02-24T12:04:31.889Z,8.70
2023-02-24T12:07:06.713Z,8.40
2023-02-24T12:09:45.536Z,9.10
2023-02-24T12:12:17.956Z,9.60
2023-02-24T12:15:04.662Z,9.63
2023-02-24T12:17:44.905Z,8.13
2023-02-24T12:20:23.980Z,7.77
2023-02-24T12:22:58.037Z,7.57
2023-02-24T12:25:35.124Z,6.57
2023-02-24T12:28:21.684Z,6.03
2023-02-24T12:31:01.245Z,5.73
2023-02-24T12:34:09.675Z,6.43
2023-02-24T12:36:45.166Z,5.87
2023-02-24T12:39:22.250Z,6.87
2023-02-24T12:42:05.432Z,6.20
2023-02-24T12:44:48.070Z,5.60
2023-02-24T12:47:34.087Z,6.20
2023-02-24T12:50:23.451Z,6.47
2023-02-24T12:53:06.590Z,6.47
2023-02-24T12:55:38.569Z,4.87
2023-02-24T12:58:31.075Z,5.47
2023-02-24T13:01:21.685Z,4.77
2023-02-24T13:04:05.528Z,3.90
2023-02-24T13:06:35.516Z,3.90
2023-02-24T13:09:37.049Z,4.03
2023-02-24T13:12:09.472Z,3.93
2023-02-24T13:14:41.132Z,3.20
2023-02-24T13:17:11.392Z,3.20
2023-02-24T13:19:40.381Z,3.80
2023-02-24T13:22:23.231Z,4.10
2023-02-24T13:25:21.845Z,4.50
2023-02-24T13:28:02.035Z,4.53
2023-02-24T13:30:42.174Z,4.27
2023-02-24T13:33:18.472Z,4.37
2023-02-24T13:35:48.507Z,3.90
2023-02-24T13:38:38.017Z,4.60
2023-02-24T13:41:23.493Z,4.13
2023-02-24T13:44:25.071Z,6.03
2023-02-24T13:47:12.664Z,5.80
2023-02-24T13:49:45.078Z,4.90
2023-02-24T13:52:36.427Z,5.43
2023-02-24T13:55:12.595Z,5.40
2023-02-24T13:57:54.224Z,5.22
2023-02-24T14:00:39.762Z,4.88
2023-02-24T14:03:19.558Z,4.18
2023-02-24T14:05:48.233Z,4.35
2023-02-24T14:08:43.967Z,3.97
2023-02-24T14:11:16.497Z,5.30
2023-02-24T14:13:50.877Z,4.47
2023-02-24T14:16:25.700Z,5.43
2023-02-24T14:18:55.824Z,5.25
2023-02-24T14:21:25.707Z,5.10
2023-02-24T14:24:13.415Z,4.95
2023-02-24T14:26:50.655Z,5.55
2023-02-24T14:29:27.404Z,5.43
2023-02-24T14:31:56.381Z,4.47
2023-02-24T14:34:26.961Z,4.68
2023-02-24T14:37:00.525Z,5.40
2023-02-24T14:39:32.261Z,5.00
2023-02-24T14:42:08.794Z,5.22
2023-02-24T14:44:47.928Z,5.32
2023-02-24T14:47:17.198Z,5.80
2023-02-24T14:49:55.542Z,6.00
2023-02-24T14:52:52.081Z,5.07
2023-02-24T14:55:23.896Z,4.95
2023-02-24T14:58:07.002Z,5.25
2023-02-24T15:03:52.968Z,6.20
2023-02-24T15:06:50.110Z,6.15
2023-02-24T15:09:31.130Z,6.05
2023-02-24T15:12:12.230Z,6.38
2023-02-24T15:14:48.546Z,6.20
2023-02-24T15:17:19.294Z,5.78
2023-02-24T15:23:08.084Z,6.28
2023-02-24T15:25:52.656Z,6.30
2023-02-24T15:28:33.644Z,6.32
2023-02-24T15:31:18.360Z,5.97
2023-02-24T15:34:21.021Z,6.43
2023-02-24T15:36:51.481Z,6.70
2023-02-24T15:39:26.378Z,6.55
2023-02-24T15:42:07.774Z,6.22
2023-02-24T15:44:39.639Z,6.90
2023-02-24T15:47:27.903Z,6.40
2023-02-24T15:49:55.001Z,6.38
2023-02-24T15:52:29.411Z,5.20
2023-02-24T15:54:59.762Z,6.05
2023-02-24T15:57:30.083Z,4.93
2023-02-24T15:59:57.199Z,5.20
2023-02-24T16:02:25.725Z,5.05
2023-02-24T16:04:53.454Z,5.72
2023-02-24T16:07:32.818Z,5.25
2023-02-24T16:10:01.798Z,5.50
2023-02-24T16:12:35.902Z,5.45
2023-02-24T16:15:14.790Z,6.05
2023-02-24T16:17:42.886Z,4.68
2023-02-24T16:20:16.714Z,5.85
2023-02-24T16:22:43.951Z,6.57
2023-02-24T16:25:15.390Z,6.53
2023-02-24T16:27:42.735Z,5.32
2023-02-24T16:30:19.539Z,5.20
2023-02-24T16:32:48.697Z,5.50
2023-02-24T16:35:16.756Z,5.57
2023-02-24T16:37:47.271Z,5.68
2023-02-24T16:40:23.477Z,5.05
2023-02-24T16:42:52.158Z,6.35
2023-02-24T16:45:21.404Z,6.80
2023-02-24T16:47:50.325Z,5.97
2023-02-24T16:50:26.124Z,5.40
2023-02-24T16:52:53.988Z,4.88
2023-02-24T16:55:21.466Z,5.53
2023-02-24T16:57:49.133Z,5.22
2023-02-24T17:00:17.605Z,5.95
2023-02-24T17:02:45.812Z,6.20
2023-02-24T17:05:23.539Z,5.47
2023-02-24T17:07:53.691Z,5.80
2023-02-24T17:10:22.658Z,6.47
2023-02-24T17:12:50.075Z,7.28
2023-02-24T17:15:20.031Z,7.18
2023-02-24T17:17:47.577Z,6.43
2023-02-24T17:20:17.510Z,6.68
2023-02-24T17:22:45.902Z,6.90
2023-02-24T17:25:23.218Z,6.93
2023-02-24T17:27:53.290Z,6.78
2023-02-24T17:30:24.417Z,6.88
2023-02-24T17:32:53.152Z,6.97
2023-02-24T17:35:20.754Z,7.82
2023-02-24T17:37:48.222Z,6.97
2023-02-24T17:40:16.370Z,7.72
2023-02-24T17:42:43.953Z,7.60
2023-02-24T17:45:13.177Z,6.97
2023-02-24T17:47:40.716Z,7.55
2023-02-24T17:50:10.435Z,7.53
2023-02-24T17:52:39.544Z,6.80
2023-02-24T17:55:08.620Z,7.45
2023-02-24T17:57:37.138Z,7.25
2023-02-24T18:00:06.870Z,8.05
2023-02-24T18:02:34.901Z,7.28
2023-02-24T18:05:03.537Z,7.68
2023-02-24T18:07:31.300Z,7.28
2023-02-24T18:10:00.346Z,7.18
2023-02-24T18:12:28.328Z,8.88
2023-02-24T18:15:07.394Z,8.35
2023-02-24T18:17:38.954Z,7.53
2023-02-24T18:20:08.194Z,7.57
2023-02-24T18:22:36.412Z,7.78
2023-02-24T18:25:04.165Z,7.88
2023-02-24T18:27:31.793Z,8.88
2023-02-24T18:29:59.566Z,8.77
2023-02-24T18:32:28.364Z,8.55
2023-02-24T18:34:56.044Z,9.60
2023-02-24T18:37:23.680Z,8.18
2023-02-24T18:39:53.530Z,9.10
2023-02-24T18:42:21.338Z,9.25
2023-02-24T18:44:49.425Z,8.48
2023-02-24T18:47:17.553Z,9.80
2023-02-24T18:49:45.474Z,7.72
2023-02-24T18:52:14.066Z,8.35
2023-02-24T18:54:41.783Z,8.15
2023-02-24T18:57:09.774Z,8.07
2023-02-24T18:59:38.785Z,8.18
2023-02-24T19:02:06.903Z,8.30
2023-02-24T19:04:34.827Z,7.78
2023-02-24T19:07:02.816Z,7.45
2023-02-24T19:09:30.464Z,9.00
2023-02-24T19:11:58.022Z,8.25
2023-02-24T19:14:25.698Z,8.63
2023-02-24T19:16:53.734Z,9.10
2023-02-24T19:19:23.257Z,8.90
2023-02-24T19:21:52.243Z,8.73
2023-02-24T19:24:20.039Z,8.43
2023-02-24T19:26:48.176Z,7.78
2023-02-24T19:29:16.882Z,7.60
2023-02-24T19:31:45.739Z,7.70
2023-02-24T19:34:15.998Z,7.28
2023-02-24T19:36:43.782Z,7.03
2023-02-24T19:39:14.759Z,7.70
2023-02-24T19:41:43.428Z,8.05
2023-02-24T19:44:11.774Z,7.28
2023-02-24T19:46:40.297Z,7.35
2023-02-24T19:49:08.193Z,6.18
2023-02-24T19:51:36.390Z,5.13
2023-02-24T19:54:06.548Z,5.13
2023-02-24T19:56:39.139Z,5.50
2023-02-24T19:59:08.446Z,4.22
2023-02-24T20:01:36.498Z,5.10
2023-02-24T20:04:06.509Z,4.28
2023-02-24T20:06:37.310Z,4.60
2023-02-24T20:09:17.734Z,4.88
2023-02-24T20:11:46.683Z,4.63
2023-02-24T20:14:16.681Z,5.07
2023-02-24T20:16:44.642Z,6.10
2023-02-24T20:19:17.691Z,5.85
2023-02-24T20:21:45.698Z,5.80
2023-02-24T20:24:15.938Z,6.05
2023-02-24T20:26:47.700Z,6.15
2023-02-24T20:29:17.861Z,5.75
2023-02-24T20:31:49.101Z,7.25
2023-02-24T20:34:17.079Z,5.93
2023-02-24T20:36:44.799Z,5.90
2023-02-24T20:39:13.169Z,6.70
2023-02-24T20:41:41.948Z,7.05
2023-02-24T20:44:10.935Z,4.80
2023-02-24T20:46:39.031Z,5.13
2023-02-24T20:49:09.459Z,5.35
2023-02-24T20:51:40.545Z,5.45
2023-02-24T20:54:10.532Z,4.60
2023-02-24T20:56:40.959Z,5.00
2023-02-24T20:59:17.540Z,5.22
2023-02-24T21:01:47.940Z,5.45
2023-02-24T21:04:19.331Z,5.75
2023-02-24T21:06:51.574Z,5.45
2023-02-24T21:09:19.229Z,4.80
2023-02-24T21:11:47.194Z,4.03
2023-02-24T21:14:16.957Z,4.97
2023-02-24T21:16:46.353Z,5.05
2023-02-24T21:19:14.372Z,4.55
2023-02-24T21:21:42.282Z,4.68
2023-02-24T21:24:09.767Z,4.45
2023-02-24T21:26:37.083Z,4.88
2023-02-24T21:29:04.534Z,5.18
2023-02-24T21:31:31.684Z,4.82
2023-02-24T21:33:59.031Z,5.97
2023-02-24T21:36:28.197Z,5.65
2023-02-24T21:38:56.107Z,5.03
2023-02-24T21:41:24.005Z,5.28
2023-02-24T21:43:55.493Z,5.30
2023-02-24T21:46:25.025Z,5.50
2023-02-24T21:48:57.050Z,4.95
2023-02-24T21:51:25.376Z,4.80
2023-02-24T21:53:55.423Z,4.15
2023-02-24T21:56:26.351Z,4.60
2023-02-24T21:59:05.227Z,3.80
2023-02-24T22:01:38.588Z,4.00
2023-02-24T22:04:08.496Z,3.42
2023-02-24T22:06:37.136Z,3.80
2023-02-24T22:09:06.234Z,4.65
2023-02-24T22:11:35.361Z,3.55
2023-02-24T22:14:03.264Z,3.13
2023-02-24T22:16:30.473Z,3.67
2023-02-24T22:18:57.608Z,3.45
2023-02-24T22:21:28.322Z,3.40
2023-02-24T22:23:59.638Z,3.47
2023-02-24T22:26:28.818Z,3.33
2023-02-24T22:28:56.266Z,2.72
2023-02-24T22:31:26.996Z,3.17
2023-02-24T22:33:54.141Z,2.15
2023-02-24T22:36:25.278Z,2.70
2023-02-24T22:38:53.179Z,2.40
2023-02-24T22:41:22.800Z,2.42
2023-02-24T22:43:50.388Z,2.70
2023-02-24T22:46:27.158Z,2.83
2023-02-24T22:48:56.070Z,2.28
2023-02-24T22:51:24.293Z,3.25
2023-02-24T22:53:51.986Z,1.75
2023-02-24T22:56:22.371Z,2.20
2023-02-24T22:58:49.814Z,2.30
2023-02-24T23:01:23.545Z,2.20
2023-02-24T23:03:50.940Z,1.95
2023-02-24T23:06:28.518Z,2.78
2023-02-24T23:08:56.982Z,2.75
2023-02-24T23:11:30.552Z,2.78
2023-02-24T23:13:59.846Z,2.40
2023-02-24T23:16:31.873Z,1.10
2023-02-24T23:19:01.076Z,1.45
2023-02-24T23:21:46.355Z,1.48
2023-02-24T23:24:14.784Z,1.13
2023-02-24T23:26:48.157Z,1.25
2023-02-24T23:29:17.709Z,1.15
2023-02-24T23:31:45.033Z,1.50
2023-02-24T23:34:12.588Z,0.80
2023-02-24T23:36:43.701Z,1.20
2023-02-24T23:39:13.383Z,1.10
2023-02-24T23:41:44.445Z,1.20
2023-02-24T23:44:12.656Z,1.10
2023-02-24T23:46:41.975Z,0.90
2023-02-24T23:49:09.114Z,1.40
2023-02-24T23:51:47.728Z,1.30
2023-02-24T23:54:19.312Z,0.90
2023-02-24T23:56:46.792Z,0.80
2023-02-24T23:59:14.094Z,0.73
